Latest Weather Observations for Cape Leeuwin

IDW60801

Issued at 5:04 pm WST Thursday 19 October 2017 (issued every 30 minutes, with the page automatically refreshed every 10 minutes)

About weather observations | Map of weather stations | Latest weather observations for WA | Other Formats
Station Details ID: 009518 Name: CAPE LEEUWIN Lat: -34.37 Lon: 115.14 Height: 13.0 m
Data from the previous 72 hours. | See also: Recent months at Cape Leeuwin
Date/Time
WST
Temp
°C
App
Temp
°C
Dew
Point
°C
Rel
Hum
%
Delta-T
°C
Wind Press
QNH
hPa
Press
MSL
hPa
Rain since
9am
mm
Dir  Spd
km/h
Gust
km/h
Spd
kts
Gust
kts
19/05:00pm 16.6 10.5 9.7 63 3.6 SE 32 39 17 21 1027.3 1027.3 0.0
19/04:30pm 16.9 10.4 8.9 59 4.1 SSE 33 41 18 22 1027.1 1027.1 0.0
19/04:00pm 17.5 11.3 9.4 59 4.2 SSE 32 39 17 21 1026.9 1026.9 0.0
19/03:30pm 17.7 11.8 9.2 57 4.4 SSE 30 37 16 20 1026.8 1026.8 0.0
19/03:00pm 17.8 11.4 8.6 55 4.7 SSE 32 37 17 20 1026.5 1026.5 0.0
19/02:30pm 18.1 13.2 8.3 52 5.0 SSE 24 32 13 17 1026.8 1026.8 0.0
19/02:00pm 18.6 13.6 8.0 50 5.4 SE 24 28 13 15 1027.0 1027.0 0.0
19/01:30pm 18.7 13.7 8.1 50 5.4 SE 24 30 13 16 1027.2 1027.2 0.0
19/01:00pm 18.1 13.5 8.1 52 5.1 SE 22 30 12 16 1027.4 1027.4 0.0
19/12:30pm 18.3 13.9 7.3 48 5.5 SE 20 26 11 14 1027.7 1027.7 0.0
19/12:00pm 17.5 13.1 7.5 52 5.0 ESE 20 26 11 14 1027.8 1027.8 0.0
19/11:30am 16.8 12.8 6.8 51 4.9 ESE 17 24 9 13 1028.1 1028.1 0.0
19/11:00am 17.4 13.7 8.1 54 4.7 E 17 20 9 11 1028.4 1028.4 0.0
19/10:30am 16.8 13.1 7.8 55 4.5 E 17 20 9 11 1028.7 1028.7 0.0
19/10:00am 16.2 12.4 7.5 56 4.3 ENE 17 22 9 12 1028.8 1028.8 0.0
19/09:30am 16.8 13.6 6.8 51 4.9 NE 13 19 7 10 1028.8 1028.8 0.0
19/09:00am 15.3 12.1 6.9 57 4.1 NNE 13 17 7 9 1028.8 1028.8 0.2
19/08:30am 14.3 10.4 7.1 62 3.5 NNE 17 20 9 11 1028.6 1028.6 0.2
19/08:00am 14.8 12.7 6.7 58 3.9 NNE 7 11 4 6 1028.5 1028.5 0.2
19/07:30am 14.3 11.5 7.1 62 3.5 N 11 13 6 7 1028.4 1028.4 0.2
19/07:00am 14.1 11.7 7.1 62 3.4 NE 9 13 5 7 1028.1 1028.1 0.2
19/06:30am 14.1 11.7 6.8 61 3.5 ESE 9 13 5 7 1027.5 1027.5 0.2
19/06:00am 13.8 10.2 5.2 56 4.0 SE 13 20 7 11 1027.3 1027.3 0.2
19/05:30am 13.5 10.3 5.3 57 3.8 SSE 11 17 6 9 1026.7 1026.7 0.2
19/05:00am 13.4 10.4 6.0 61 3.5 SSE 11 17 6 9 1026.3 1026.3 0.2
19/04:30am 13.2 10.7 4.7 56 3.9 SSW 7 11 4 6 1026.2 1026.2 0.2
19/04:00am 13.4 9.4 4.7 55 4.0 SSW 15 20 8 11 1026.0 1026.0 0.2
19/03:30am 13.7 8.4 5.1 56 4.0 SSW 22 28 12 15 1025.9 1025.9 0.2
19/03:00am 13.9 10.2 6.1 59 3.7 SSW 15 24 8 13 1025.8 1025.8 0.2
19/02:30am 13.9 10.3 4.8 54 4.2 SSW 13 20 7 11 1025.9 1025.9 0.2
19/02:00am 13.7 10.5 5.3 57 3.9 SSW 11 19 6 10 1025.9 1025.9 0.2
19/01:30am 13.4 10.2 4.9 56 3.9 S 11 17 6 9 1025.9 1025.9 0.2
19/01:00am 13.3 9.3 4.8 56 3.9 SW 15 20 8 11 1025.9 1025.9 0.2
19/12:30am 13.7 8.8 5.1 56 4.0 SW 20 28 11 15 1025.9 1025.9 0.2
19/12:00am 13.8 8.9 4.9 55 4.1 SSW 20 28 11 15 1025.7 1025.7 0.2
 
Date/Time
WST
Temp
°C
App
Temp
°C
Dew
Point
°C
Rel
Hum
%
Delta-T
°C
Wind Press
QNH
hPa
Press
MSL
hPa
Rain since
9am
mm
Dir  Spd
km/h
Gust
km/h
Spd
kts
Gust
kts
18/11:30pm 14.0 9.4 5.7 57 3.9 SSW 19 28 10 15 1025.5 1025.5 0.2
18/11:00pm 13.8 9.1 5.2 56 4.0 SW 19 30 10 16 1025.6 1025.6 0.2
18/10:30pm 13.7 9.4 5.3 57 3.9 SSW 17 28 9 15 1025.5 1025.5 0.2
18/10:00pm 13.7 9.0 5.1 56 4.0 SW 19 28 10 15 1025.5 1025.5 0.2
18/09:30pm 13.4 9.0 4.9 56 3.9 SW 17 26 9 14 1025.6 1025.6 0.2
18/09:00pm 13.5 8.7 4.8 55 4.0 SW 19 26 10 14 1025.6 1025.6 0.2
18/08:30pm 13.0 8.0 4.4 56 3.9 SW 20 28 11 15 1025.4 1025.4 0.2
18/08:00pm 13.1 8.6 4.3 55 4.0 SW 17 28 9 15 1024.8 1024.8 0.2
18/07:30pm 12.9 8.3 3.7 53 4.1 WSW 17 24 9 13 1024.4 1024.4 0.2
18/07:00pm 12.9 8.4 4.0 54 4.0 SW 17 26 9 14 1024.1 1024.1 0.2
18/06:30pm 13.5 7.6 4.0 52 4.3 WSW 24 30 13 16 1023.8 1023.8 0.2
18/06:00pm 13.8 7.6 4.1 52 4.4 SW 26 33 14 18 1023.4 1023.4 0.2
18/05:30pm 14.0 7.5 4.7 53 4.3 SW 28 35 15 19 1023.1 1023.1 0.2
18/05:00pm 14.6 8.1 4.9 52 4.5 WSW 28 35 15 19 1022.8 1022.8 0.2
18/04:30pm 14.8 7.4 3.8 47 5.0 WSW 32 43 17 23 1022.3 1022.3 0.2
18/04:00pm 15.2 8.1 5.5 52 4.6 WSW 32 39 17 21 1021.9 1021.9 0.2
18/03:30pm 15.0 7.1 4.1 48 5.0 WSW 35 41 19 22 1021.7 1021.7 0.2
18/03:00pm 15.8 8.4 5.0 48 5.1 WSW 33 41 18 22 1021.2 1021.2 0.2
18/02:30pm 15.6 7.9 5.2 50 4.9 WSW 35 46 19 25 1021.0 1021.0 0.2
18/02:00pm 15.8 8.7 6.3 53 4.6 WSW 33 41 18 22 1020.7 1020.7 0.2
18/01:30pm 16.1 9.1 5.9 50 4.9 WSW 32 41 17 22 1020.6 1020.6 0.2
18/01:00pm 15.9 8.5 5.1 48 5.1 WSW 33 41 18 22 1020.5 1020.5 0.2
18/12:30pm 15.3 8.0 5.6 52 4.6 WSW 33 44 18 24 1020.2 1020.2 0.2
18/12:00pm 16.4 10.3 8.3 58 4.1 WSW 30 37 16 20 1020.2 1020.2 0.2
18/11:30am 15.2 8.2 6.8 57 4.1 WSW 33 43 18 23 1020.1 1020.1 0.2
18/11:00am 14.2 5.8 5.7 56 4.0 WSW 39 46 21 25 1019.9 1019.9 0.0
18/10:40am 14.6 7.5 8.2 65 3.2 WSW 35 56 19 30 1019.6 1019.6 0.0
18/10:30am 15.5 7.4 7.2 57 4.1 WSW 39 46 21 25 1019.6 1019.6 0.0
18/10:00am 14.8 6.7 6.8 58 3.9 WSW 39 54 21 29 1019.4 1019.4 0.0
18/09:30am 14.1 5.0 6.1 58 3.8 W 43 52 23 28 1019.0 1019.0 0.0
18/09:00am 14.3 5.5 7.4 63 3.4 WSW 43 50 23 27 1018.5 1018.5 8.4
18/08:30am 13.7 6.2 8.0 68 2.8 W 37 44 20 24 1017.9 1017.9 8.4
18/08:00am 11.6 1.5 8.8 83 1.4 W 52 63 28 34 1017.5 1017.5 8.4
18/07:30am 13.8 5.2 6.5 61 3.5 W 41 52 22 28 1016.8 1016.8 7.8
18/07:00am 13.2 3.9 5.0 57 3.8 WSW 43 54 23 29 1016.3 1016.3 7.8
18/06:30am 13.2 3.3 4.7 56 3.9 WSW 46 56 25 30 1015.7 1015.7 7.8
18/06:00am 13.4 3.7 5.8 60 3.6 W 46 61 25 33 1015.0 1015.0 7.8
18/05:30am 13.0 3.8 6.5 64 3.1 W 44 56 24 30 1014.6 1014.6 7.8
18/05:23am 12.5 3.7 7.3 70 2.5 W 43 50 23 27 1014.6 1014.6 7.8
18/05:05am 11.9 -0.4 6.9 71 2.4 WSW 61 78 33 42 1014.2 1014.2 7.8
18/05:00am 11.7 0.4 7.1 73 2.2 WSW 56 78 30 42 1014.0 1014.0 7.6
18/04:59am 11.7 0.7 6.9 72 2.3 WSW 54 78 29 42 1013.9 1013.9 7.6
18/04:34am 12.0 2.4 7.9 76 2.0 WSW 48 67 26 36 1013.6 1013.6 7.6
18/04:30am 11.6 0.7 7.2 74 2.1 W 54 67 29 36 1013.7 1013.7 7.6
18/04:00am 12.3 2.7 8.0 75 2.1 WSW 48 61 26 33 1013.1 1013.1 7.6
18/03:55am 12.6 1.9 8.1 74 2.2 WSW 54 65 29 35 1013.2 1013.2 7.6
18/03:30am 13.2 1.6 6.0 61 3.4 W 56 67 30 36 1012.3 1012.3 7.6
18/03:12am 12.5 3.8 7.6 72 2.4 W 43 61 23 33 1012.2 1012.2 7.6
18/03:00am 13.0 2.9 7.2 68 2.8 W 50 63 27 34 1012.0 1012.0 6.4
18/02:30am 13.5 3.0 5.4 58 3.8 W 50 61 27 33 1011.7 1011.7 6.4
18/02:00am 13.7 2.3 5.1 56 4.0 W 54 61 29 33 1011.5 1011.5 6.4
18/01:30am 13.5 1.9 5.7 59 3.7 W 56 65 30 35 1011.2 1011.2 6.4
18/01:00am 13.6 1.8 4.7 55 4.1 W 56 65 30 35 1011.0 1011.0 6.4
18/12:30am 13.5 2.7 5.9 60 3.6 W 52 65 28 35 1010.8 1010.8 6.4
18/12:12am 13.7 3.1 6.7 62 3.4 W 52 70 28 38 1010.8 1010.8 6.4
18/12:00am 13.7 2.5 5.9 59 3.7 W 54 65 29 35 1010.7 1010.7 6.4
 
Date/Time
WST
Temp
°C
App
Temp
°C
Dew
Point
°C
Rel
Hum
%
Delta-T
°C
Wind Press
QNH
hPa
Press
MSL
hPa
Rain since
9am
mm
Dir  Spd
km/h
Gust
km/h
Spd
kts
Gust
kts
17/11:30pm 13.8 2.4 4.7 54 4.2 W 54 63 29 34 1010.4 1010.4 6.4
17/11:00pm 14.0 2.9 4.7 53 4.3 W 52 63 28 34 1010.2 1010.2 6.4
17/10:30pm 13.9 3.4 5.4 56 4.0 W 50 61 27 33 1010.0 1010.0 6.4
17/10:00pm 14.1 3.3 5.9 57 3.9 W 52 65 28 35 1009.6 1009.6 6.4
17/09:30pm 13.8 2.7 6.3 60 3.6 W 54 63 29 34 1009.6 1009.6 6.4
17/09:00pm 13.7 2.2 6.2 60 3.6 W 56 65 30 35 1009.4 1009.4 6.4
17/08:30pm 13.8 2.4 6.5 61 3.5 W 56 65 30 35 1008.7 1008.7 6.4
17/08:00pm 14.1 3.3 7.6 65 3.2 W 54 63 29 34 1008.2 1008.2 6.4
17/07:30pm 13.6 5.3 9.3 75 2.2 W 43 50 23 27 1007.6 1007.6 6.4
17/07:00pm 12.8 3.2 9.5 80 1.7 WSW 50 61 27 33 1007.0 1007.0 6.4
17/06:30pm 13.0 1.6 10.5 85 1.3 WSW 61 76 33 41 1006.0 1006.0 6.4
17/06:00pm 14.0 1.3 11.4 84 1.4 W 69 82 37 44 1004.9 1004.9 6.2
17/05:38pm 14.8 4.7 12.4 85 1.3 WNW 57 78 31 42 1004.3 1004.3 6.0
17/05:30pm 14.5 3.9 11.9 84 1.4 WNW 59 69 32 37 1004.3 1004.3 5.6
17/05:11pm 14.5 1.5 10.9 79 1.9 WNW 70 91 38 49 1003.9 1003.9 5.4
17/05:00pm 16.0 5.5 12.2 78 2.1 WNW 59 69 32 37 1003.7 1003.7 5.4
17/04:30pm 15.0 4.3 12.8 87 1.2 NW 61 76 33 41 1003.6 1003.6 5.4
17/04:00pm 13.2 1.9 12.1 93 0.6 WNW 63 76 34 41 1003.7 1003.7 4.6
17/03:46pm 14.9 5.0 12.9 88 1.1 WNW 57 76 31 41 1003.5 1003.5 2.0
17/03:30pm 15.8 5.6 13.3 85 1.4 NW 59 72 32 39 1003.3 1003.3 2.0
17/03:00pm 17.2 6.0 12.3 73 2.7 NW 63 74 34 40 1003.1 1003.1 1.8
17/02:30pm 16.3 4.7 12.3 77 2.2 NW 65 76 35 41 1003.4 1003.4 1.8
17/02:15pm 16.2 7.0 13.5 84 1.5 NW 54 78 29 42 1003.7 1003.7 1.8
17/02:00pm 15.6 5.7 13.1 85 1.4 NW 57 67 31 36 1004.1 1004.1 1.8
17/01:30pm 14.8 2.7 12.0 83 1.5 NW 67 85 36 46 1004.1 1004.1 1.2
17/01:02pm 16.3 5.2 11.5 73 2.6 NW 61 80 33 43 1004.2 1004.2 0.2
17/01:00pm 16.8 5.7 11.7 72 2.8 NW 61 74 33 40 1004.2 1004.2 0.2
17/12:30pm 17.2 6.6 10.7 65 3.5 NW 57 69 31 37 1004.6 1004.6 0.2
17/12:00pm 17.1 6.7 11.2 68 3.2 NW 57 70 31 38 1004.9 1004.9 0.2
17/11:30am 16.8 6.6 11.3 70 3.0 NW 56 67 30 36 1005.2 1005.2 0.2
17/11:00am 16.3 8.8 12.7 79 2.0 NW 44 54 24 29 1005.4 1005.4 0.2
17/10:30am 16.5 6.5 10.7 68 3.1 NW 54 63 29 34 1005.6 1005.6 0.0
17/10:00am 16.4 7.2 11.0 70 2.9 NW 50 61 27 33 1005.8 1005.8 0.0
17/09:30am 14.8 6.3 12.0 83 1.5 NW 48 61 26 33 1006.0 1006.0 0.0
17/09:00am 16.5 8.1 10.9 69 3.0 NW 46 54 25 29 1005.6 1005.6 3.6
17/08:30am 16.0 7.2 9.5 65 3.4 NW 46 54 25 29 1005.5 1005.5 3.6
17/08:00am 15.5 7.1 9.1 65 3.3 NW 43 50 23 27 1005.6 1005.6 3.6
17/07:30am 15.3 6.6 8.6 64 3.4 WNW 44 54 24 29 1005.4 1005.4 3.6
17/07:00am 14.7 5.5 7.9 63 3.4 WNW 46 56 25 30 1005.3 1005.3 3.6
17/06:30am 14.5 5.8 7.9 64 3.3 WNW 43 50 23 27 1005.2 1005.2 3.6
17/06:00am 14.1 4.8 7.4 64 3.3 WNW 46 56 25 30 1004.9 1004.9 3.6
17/05:48am 14.1 4.5 7.9 66 3.1 WNW 48 67 26 36 1004.8 1004.8 3.6
17/05:30am 14.3 3.7 8.3 67 3.0 W 54 65 29 35 1004.3 1004.3 3.6
17/05:00am 14.2 3.8 9.1 71 2.6 W 54 63 29 34 1004.1 1004.1 3.6
17/04:30am 14.3 4.2 10.3 77 2.1 W 54 65 29 35 1003.7 1003.7 3.6
17/04:00am 13.9 3.5 11.3 84 1.4 W 57 67 31 36 1003.5 1003.5 3.6
17/03:49am 14.4 4.5 11.2 81 1.7 W 54 72 29 39 1003.4 1003.4 3.6
17/03:30am 14.4 4.1 11.2 81 1.7 W 56 65 30 35 1003.2 1003.2 3.6
17/03:00am 14.2 3.4 11.4 83 1.5 W 59 70 32 38 1003.1 1003.1 3.6
17/02:30am 14.6 4.9 11.8 83 1.5 W 54 61 29 33 1003.0 1003.0 3.6
17/02:00am 14.9 6.2 12.5 85 1.3 WNW 50 65 27 35 1002.8 1002.8 3.6
17/01:30am 14.5 5.6 11.9 84 1.4 W 50 63 27 34 1002.5 1002.5 3.2
17/01:00am 15.3 6.6 11.2 76 2.2 W 48 54 26 29 1002.2 1002.1 3.2
17/12:30am 15.1 5.1 10.8 75 2.3 W 54 65 29 35 1002.1 1002.0 3.2
17/12:00am 15.1 5.2 11.2 77 2.1 W 54 69 29 37 1001.5 1001.4 3.2
 
Date/Time
WST
Temp
°C
App
Temp
°C
Dew
Point
°C
Rel
Hum
%
Delta-T
°C
Wind Press
QNH
hPa
Press
MSL
hPa
Rain since
9am
mm
Dir  Spd
km/h
Gust
km/h
Spd
kts
Gust
kts
16/11:30pm 14.5 4.8 11.9 84 1.4 W 54 67 29 36 1000.8 1000.7 3.2
16/11:00pm 14.8 5.1 11.7 82 1.7 W 54 65 29 35 1000.0 999.9 3.2
16/10:30pm 15.0 5.5 12.5 85 1.4 WNW 54 61 29 33 999.3 999.2 3.2
16/10:00pm 15.1 4.6 11.0 76 2.2 WNW 57 76 31 41 998.9 998.8 3.2
16/09:48pm 14.6 4.5 11.8 83 1.5 WNW 56 74 30 40 998.8 998.7 3.2
16/09:30pm 15.2 2.8 9.6 69 2.9 WNW 65 72 35 39 998.6 998.5 3.2
16/09:00pm 15.1 4.2 11.0 76 2.2 WNW 59 70 32 38 998.3 998.2 3.2
16/08:30pm 15.0 4.7 11.7 80 1.8 W 57 69 31 37 997.4 997.3 3.2
16/08:00pm 15.6 5.4 12.1 80 1.9 W 57 65 31 35 996.1 996.0 3.2
16/07:47pm 16.0 5.4 13.0 82 1.7 W 61 72 33 39 995.5 995.4 3.2
16/07:30pm 16.5 5.3 13.7 83 1.6 NW 65 78 35 42 994.7 994.6 3.2
16/07:00pm 16.3 4.1 13.5 83 1.6 NW 70 85 38 46 993.7 993.6 3.2
16/06:30pm 15.7 3.5 13.6 87 1.2 NNW 70 89 38 48 993.9 993.8 3.0
16/06:00pm 15.6 4.0 12.3 81 1.8 NNW 65 85 35 46 993.9 993.8 2.6
16/05:35pm 15.8 5.3 12.2 79 2.0 NNW 59 93 32 50 993.8 993.7 2.4
16/05:30pm 16.1 6.4 11.7 75 2.4 NNW 54 72 29 39 993.7 993.6 2.4

Other Formats:

Comma delimited format used in spreadsheet applications
http://www.bom.gov.au/fwo/IDW60801/IDW60801.94601.axf

JavaScript Object Notation format (JSON) in row-major order
http://www.bom.gov.au/fwo/IDW60801/IDW60801.94601.json